Time;durP1;ratioP1;P1;durP2;ratioP2;P2;SDS_P1;SDS_P2;PMS_P1;PMS_P2;Temp;Humidity;BMP_temperature;BMP_pressure;BME280_temperature;BME280_humidity;BME280_pressure;Samples;Min_cycle;Max_cycle;Signal;HPM_P1;HPM_P2
2023/11/12 00:01:51;;;;;;;2.92;1.35;;;;;;;;;;5128576;28;20023;-70
2023/11/12 00:04:20;;;;;;;2.88;1.50;;;;;;;;;;5131140;28;20030;-70
2023/11/12 00:06:47;;;;;;;4.43;1.15;;;;;;;;;;5130217;27;20022;-70
2023/11/12 00:09:14;;;;;;;1.83;1.20;;;;;;;;;;5134215;27;20266;-70
2023/11/12 00:11:40;;;;;;;1.75;1.20;;;;;;;;;;5135919;27;20347;-70
2023/11/12 00:14:06;;;;;;;1.45;1.00;;;;;;;;;;5134558;27;20145;-70
2023/11/12 00:16:32;;;;;;;3.05;1.00;;;;;;;;;;5133817;27;20479;-70
2023/11/12 00:18:58;;;;;;;3.45;1.35;;;;;;;;;;5123453;27;20015;-70
2023/11/12 00:21:24;;;;;;;1.35;0.90;;;;;;;;;;5126115;27;20007;-70
2023/11/12 00:23:51;;;;;;;2.97;0.80;;;;;;;;;;5124760;27;20039;-70
2023/11/12 00:26:17;;;;;;;2.60;0.98;;;;;;;;;;5118806;27;20046;-70
2023/11/12 00:28:44;;;;;;;1.02;0.70;;;;;;;;;;5121291;27;20031;-70
2023/11/12 00:31:10;;;;;;;2.08;0.98;;;;;;;;;;5126222;27;20026;-70
2023/11/12 00:33:36;;;;;;;4.05;0.95;;;;;;;;;;5123264;27;20057;-70
2023/11/12 00:36:03;;;;;;;3.13;1.20;;;;;;;;;;5122780;27;20022;-70
2023/11/12 00:38:29;;;;;;;1.67;0.73;;;;;;;;;;5122349;27;20023;-70
2023/11/12 00:40:55;;;;;;;3.25;0.80;;;;;;;;;;5118274;27;20095;-70
2023/11/12 00:43:27;;;;;;;1.23;0.88;;;;;;;;;;5110172;28;20015;-70
2023/11/12 00:46:11;;;;;;;2.88;1.67;;;;;;;;;;5110341;28;20023;-70
2023/11/12 00:48:37;;;;;;;6.93;2.88;;;;;;;;;;5115536;27;20024;-70
2023/11/12 00:51:03;;;;;;;1.77;0.82;;;;;;;;;;5112762;27;20092;-70
2023/11/12 00:53:30;;;;;;;1.65;0.82;;;;;;;;;;5115064;28;20410;-70
2023/11/12 00:55:59;;;;;;;1.90;1.10;;;;;;;;;;5115143;28;20015;-70
2023/11/12 00:58:25;;;;;;;2.38;1.05;;;;;;;;;;5109467;28;20472;-70
2023/11/12 01:00:52;;;;;;;1.60;0.90;;;;;;;;;;5117417;27;20345;-70
2023/11/12 01:03:18;;;;;;;1.90;0.85;;;;;;;;;;5113382;28;20007;-70
2023/11/12 01:05:44;;;;;;;1.95;0.80;;;;;;;;;;5114707;28;20151;-70
2023/11/12 01:08:10;;;;;;;2.60;0.80;;;;;;;;;;5109893;28;20127;-70
2023/11/12 01:10:37;;;;;;;2.40;0.95;;;;;;;;;;5114169;28;20031;-70
2023/11/12 01:13:03;;;;;;;3.72;1.15;;;;;;;;;;5113172;28;20030;-70
2023/11/12 01:15:30;;;;;;;1.98;0.90;;;;;;;;;;5114188;28;20475;-70
2023/11/12 01:17:57;;;;;;;1.50;0.90;;;;;;;;;;5105987;28;20170;-70
2023/11/12 01:20:23;;;;;;;1.73;0.85;;;;;;;;;;5114316;28;20364;-70
2023/11/12 01:22:49;;;;;;;3.75;0.98;;;;;;;;;;5114386;28;20016;-70
2023/11/12 01:25:15;;;;;;;1.40;0.68;;;;;;;;;;5111276;28;20031;-70
2023/11/12 01:27:41;;;;;;;1.90;0.90;;;;;;;;;;5113924;28;20027;-70
2023/11/12 01:30:07;;;;;;;0.70;0.68;;;;;;;;;;5112637;28;20030;-69
2023/11/12 01:32:33;;;;;;;1.95;0.95;;;;;;;;;;5113309;28;20098;-69
2023/11/12 01:35:00;;;;;;;1.23;0.70;;;;;;;;;;5112113;28;20035;-69
2023/11/12 01:37:26;;;;;;;4.00;1.10;;;;;;;;;;5114196;28;20043;-69
2023/11/12 01:39:52;;;;;;;1.75;0.80;;;;;;;;;;5112584;28;20019;-69
2023/11/12 01:42:18;;;;;;;1.52;0.82;;;;;;;;;;5114087;28;20020;-69
2023/11/12 01:44:45;;;;;;;1.70;0.90;;;;;;;;;;5113440;28;20023;-69
2023/11/12 01:47:12;;;;;;;4.10;0.70;;;;;;;;;;5112566;28;20197;-69
2023/11/12 01:49:38;;;;;;;2.45;0.77;;;;;;;;;;5113065;28;20055;-69
2023/11/12 01:52:05;;;;;;;2.17;0.70;;;;;;;;;;5108322;28;20090;-69
2023/11/12 01:54:32;;;;;;;2.15;0.60;;;;;;;;;;5112352;28;20015;-69
2023/11/12 01:56:58;;;;;;;1.40;0.90;;;;;;;;;;5112569;28;20041;-69
2023/11/12 01:59:24;;;;;;;1.52;0.85;;;;;;;;;;5108260;28;20023;-69
2023/11/12 02:01:50;;;;;;;0.50;0.50;;;;;;;;;;5113297;28;20333;-69
2023/11/12 02:04:17;;;;;;;2.30;0.90;;;;;;;;;;5112527;28;20110;-69
2023/11/12 02:06:43;;;;;;;2.58;0.70;;;;;;;;;;5113530;28;20360;-69
2023/11/12 02:09:10;;;;;;;1.48;0.77;;;;;;;;;;5096481;28;20468;-69
2023/11/12 02:11:37;;;;;;;1.77;0.85;;;;;;;;;;5113370;28;20019;-69
2023/11/12 02:14:03;;;;;;;3.63;0.80;;;;;;;;;;5112096;28;20023;-69
2023/11/12 02:16:29;;;;;;;2.33;0.85;;;;;;;;;;5112790;28;20088;-69
2023/11/12 02:18:55;;;;;;;3.03;0.75;;;;;;;;;;5111767;28;20012;-69
2023/11/12 02:21:32;;;;;;;1.20;0.60;;;;;;;;;;5112878;28;20020;-69
2023/11/12 02:23:58;;;;;;;2.35;0.80;;;;;;;;;;5111718;28;20073;-69
2023/11/12 02:26:24;;;;;;;1.67;0.70;;;;;;;;;;5111744;28;20091;-69
2023/11/12 02:28:50;;;;;;;2.05;0.60;;;;;;;;;;5093289;28;20031;-69
2023/11/12 02:31:16;;;;;;;3.65;0.77;;;;;;;;;;5103985;28;20023;-69
2023/11/12 02:33:43;;;;;;;1.60;0.50;;;;;;;;;;5109920;28;20026;-69
2023/11/12 02:36:09;;;;;;;1.25;0.47;;;;;;;;;;5110109;28;20091;-69
2023/11/12 02:38:35;;;;;;;2.95;0.52;;;;;;;;;;5112109;28;20359;-69
2023/11/12 02:41:02;;;;;;;1.35;0.45;;;;;;;;;;5110333;28;20376;-69
2023/11/12 02:43:29;;;;;;;2.85;0.50;;;;;;;;;;5097933;28;20076;-69
2023/11/12 02:45:58;;;;;;;1.92;0.68;;;;;;;;;;5111586;28;20496;-69
2023/11/12 02:48:25;;;;;;;1.08;0.73;;;;;;;;;;5106258;28;20070;-69
2023/11/12 02:50:50;;;;;;;1.65;0.50;;;;;;;;;;5108680;28;20023;-69
2023/11/12 02:53:16;;;;;;;2.15;0.52;;;;;;;;;;5111230;28;20457;-69
2023/11/12 02:55:42;;;;;;;3.83;0.70;;;;;;;;;;5112342;28;20019;-69
2023/11/12 02:58:10;;;;;;;1.20;0.60;;;;;;;;;;5110890;28;20027;-69
2023/11/12 03:00:37;;;;;;;3.13;0.65;;;;;;;;;;5107214;28;20020;-69
2023/11/12 03:03:04;;;;;;;1.95;0.60;;;;;;;;;;5099084;28;20054;-69
2023/11/12 03:05:31;;;;;;;1.13;0.55;;;;;;;;;;5111890;28;20110;-69
2023/11/12 03:07:57;;;;;;;2.42;0.60;;;;;;;;;;5111022;28;20467;-69
2023/11/12 03:10:24;;;;;;;5.50;1.35;;;;;;;;;;5111702;28;20448;-69
2023/11/12 03:12:50;;;;;;;4.75;1.90;;;;;;;;;;5093545;28;20020;-69
2023/11/12 03:15:16;;;;;;;3.75;2.20;;;;;;;;;;5108252;28;20106;-69
2023/11/12 03:17:43;;;;;;;4.90;2.13;;;;;;;;;;5114216;27;20035;-69
2023/11/12 03:20:13;;;;;;;2.00;1.25;;;;;;;;;;5131244;27;20775;-69
2023/11/12 03:22:39;;;;;;;1.15;0.98;;;;;;;;;;5132609;27;20019;-69
2023/11/12 03:25:05;;;;;;;2.63;0.73;;;;;;;;;;5130873;27;20084;-69
2023/11/12 03:27:35;;;;;;;3.03;0.70;;;;;;;;;;5132386;27;20012;-69
2023/11/12 03:30:01;;;;;;;3.15;0.85;;;;;;;;;;5121920;27;20051;-69
2023/11/12 03:32:27;;;;;;;2.38;0.93;;;;;;;;;;5131700;27;20062;-69
2023/11/12 03:34:53;;;;;;;1.98;0.60;;;;;;;;;;5127583;27;20486;-68
2023/11/12 03:37:22;;;;;;;3.70;0.93;;;;;;;;;;5132181;27;20031;-69
2023/11/12 03:39:49;;;;;;;1.80;0.60;;;;;;;;;;5125114;27;20035;-68
2023/11/12 03:42:15;;;;;;;4.05;0.95;;;;;;;;;;5130881;27;20023;-69
2023/11/12 03:44:42;;;;;;;1.05;0.57;;;;;;;;;;5131592;27;20080;-69
2023/11/12 03:47:08;;;;;;;2.05;0.70;;;;;;;;;;5131403;27;20023;-69
2023/11/12 03:49:35;;;;;;;3.85;0.80;;;;;;;;;;5128438;28;20026;-69
2023/11/12 03:52:01;;;;;;;1.92;0.68;;;;;;;;;;5131705;28;20359;-69
2023/11/12 03:54:27;;;;;;;1.83;0.50;;;;;;;;;;5131673;28;20023;-69
2023/11/12 03:56:53;;;;;;;2.28;1.10;;;;;;;;;;5104506;28;20038;-69
2023/11/12 03:59:19;;;;;;;1.60;0.40;;;;;;;;;;5131031;28;20019;-69
2023/11/12 04:01:45;;;;;;;0.60;0.52;;;;;;;;;;5131882;28;20062;-69
2023/11/12 04:04:11;;;;;;;1.83;0.70;;;;;;;;;;5130447;28;20151;-69
2023/11/12 04:06:38;;;;;;;2.40;0.60;;;;;;;;;;5132039;28;20027;-69
2023/11/12 04:09:04;;;;;;;3.88;1.00;;;;;;;;;;5127197;28;20114;-69
2023/11/12 04:11:30;;;;;;;1.83;0.85;;;;;;;;;;5131792;28;20090;-69
2023/11/12 04:13:56;;;;;;;5.25;1.20;;;;;;;;;;5130584;28;20019;-69
2023/11/12 04:16:22;;;;;;;1.08;0.82;;;;;;;;;;5126307;28;20070;-68
2023/11/12 04:18:48;;;;;;;1.67;0.90;;;;;;;;;;5110392;28;20360;-68
2023/11/12 04:21:14;;;;;;;2.53;0.90;;;;;;;;;;5109785;28;20023;-68
2023/11/12 04:23:44;;;;;;;3.47;1.20;;;;;;;;;;5109818;28;20419;-69
2023/11/12 04:26:10;;;;;;;1.33;0.75;;;;;;;;;;5110615;28;20095;-69
2023/11/12 04:28:36;;;;;;;3.63;1.30;;;;;;;;;;5110677;28;20023;-69
2023/11/12 04:31:02;;;;;;;2.92;1.10;;;;;;;;;;5101527;28;20023;-69
2023/11/12 04:33:29;;;;;;;1.90;1.00;;;;;;;;;;5110500;28;20452;-69
2023/11/12 04:35:55;;;;;;;2.33;1.13;;;;;;;;;;5110481;28;20019;-69
2023/11/12 04:38:21;;;;;;;3.35;1.23;;;;;;;;;;5110523;28;20061;-68
2023/11/12 04:40:48;;;;;;;3.22;0.95;;;;;;;;;;5107293;28;20241;-68
2023/11/12 04:43:15;;;;;;;1.58;0.95;;;;;;;;;;5108865;28;20019;-69
2023/11/12 04:45:41;;;;;;;4.18;0.73;;;;;;;;;;5110892;28;20020;-69
2023/11/12 04:48:07;;;;;;;3.20;1.13;;;;;;;;;;5101487;28;20047;-69
2023/11/12 04:50:33;;;;;;;4.65;1.10;;;;;;;;;;5110606;28;20034;-69
2023/11/12 04:52:59;;;;;;;3.40;1.20;;;;;;;;;;5111243;28;20444;-68
2023/11/12 04:55:25;;;;;;;1.88;0.98;;;;;;;;;;5114759;28;20024;-69
2023/11/12 04:57:51;;;;;;;2.13;1.30;;;;;;;;;;5113609;28;20112;-69
2023/11/12 05:00:17;;;;;;;2.00;1.20;;;;;;;;;;5113240;28;20605;-69
2023/11/12 05:02:44;;;;;;;1.20;0.85;;;;;;;;;;5114597;28;20053;-69
2023/11/12 05:05:11;;;;;;;2.78;1.05;;;;;;;;;;5113138;28;20036;-69
2023/11/12 05:07:37;;;;;;;0.50;0.50;;;;;;;;;;5114634;28;20022;-68
2023/11/12 05:10:05;;;;;;;3.83;1.05;;;;;;;;;;5112991;28;20068;-69
2023/11/12 05:12:31;;;;;;;3.55;1.02;;;;;;;;;;5114216;28;20464;-68
2023/11/12 05:14:57;;;;;;;4.00;1.17;;;;;;;;;;5107925;28;20024;-69
2023/11/12 05:17:23;;;;;;;4.55;1.48;;;;;;;;;;5113737;28;20050;-69
2023/11/12 05:19:49;;;;;;;3.47;1.33;;;;;;;;;;5111449;28;20090;-68
2023/11/12 05:22:15;;;;;;;3.10;1.33;;;;;;;;;;5113498;28;20032;-69
2023/11/12 05:24:42;;;;;;;6.60;2.00;;;;;;;;;;5113489;28;20035;-69
2023/11/12 05:27:08;;;;;;;4.47;1.75;;;;;;;;;;5113104;28;20059;-69
2023/11/12 05:29:34;;;;;;;3.08;2.00;;;;;;;;;;5109126;28;20047;-69
2023/11/12 05:32:00;;;;;;;4.18;2.05;;;;;;;;;;5107417;28;20066;-70
2023/11/12 05:34:26;;;;;;;3.17;1.70;;;;;;;;;;5113621;28;20072;-69
2023/11/12 05:36:52;;;;;;;2.40;1.88;;;;;;;;;;5113516;28;20102;-69
2023/11/12 05:39:18;;;;;;;2.63;2.03;;;;;;;;;;5112495;28;20044;-68
2023/11/12 05:41:44;;;;;;;5.40;2.15;;;;;;;;;;5113910;28;20448;-69
2023/11/12 05:44:10;;;;;;;4.10;2.28;;;;;;;;;;5112693;28;20039;-69
2023/11/12 05:46:36;;;;;;;5.63;2.70;;;;;;;;;;5113021;28;20056;-69
2023/11/12 05:49:02;;;;;;;4.35;2.42;;;;;;;;;;5107354;28;20522;-69
2023/11/12 05:51:28;;;;;;;6.32;2.60;;;;;;;;;;5113687;28;20020;-69
2023/11/12 05:53:54;;;;;;;5.25;2.85;;;;;;;;;;5112610;28;20031;-69
2023/11/12 05:56:20;;;;;;;6.18;3.10;;;;;;;;;;5105265;28;20027;-69
2023/11/12 05:58:46;;;;;;;2.95;2.50;;;;;;;;;;5112873;28;20019;-69
2023/11/12 06:01:12;;;;;;;4.45;2.75;;;;;;;;;;5099573;27;20383;-68
2023/11/12 06:03:38;;;;;;;7.53;3.47;;;;;;;;;;5105780;28;20043;-69
2023/11/12 06:06:05;;;;;;;4.97;3.35;;;;;;;;;;5105013;28;20019;-68
2023/11/12 06:08:31;;;;;;;5.53;3.75;;;;;;;;;;5109943;28;20093;-68
2023/11/12 06:10:57;;;;;;;4.05;2.95;;;;;;;;;;5099601;28;20020;-70
2023/11/12 06:13:23;;;;;;;6.35;3.70;;;;;;;;;;5111065;28;20076;-69
2023/11/12 06:15:49;;;;;;;5.57;3.63;;;;;;;;;;5107736;28;20008;-68
2023/11/12 06:18:15;;;;;;;7.60;4.43;;;;;;;;;;5105235;28;20142;-69
2023/11/12 06:20:41;;;;;;;9.52;4.68;;;;;;;;;;5103278;28;20012;-69
2023/11/12 06:23:07;;;;;;;5.80;4.10;;;;;;;;;;5111928;27;20015;-69
2023/11/12 06:25:33;;;;;;;5.40;4.25;;;;;;;;;;5108685;28;20380;-70
2023/11/12 06:27:59;;;;;;;8.88;4.55;;;;;;;;;;5110775;28;20129;-69
2023/11/12 06:30:25;;;;;;;7.95;4.90;;;;;;;;;;5100452;28;20016;-70
2023/11/12 06:32:51;;;;;;;8.77;5.50;;;;;;;;;;5109544;28;20414;-69
2023/11/12 06:35:17;;;;;;;9.52;4.65;;;;;;;;;;5087313;28;20043;-69
2023/11/12 06:37:43;;;;;;;6.72;4.70;;;;;;;;;;5111603;28;20357;-71
2023/11/12 06:40:09;;;;;;;7.15;4.53;;;;;;;;;;5106472;27;20031;-69
2023/11/12 06:42:35;;;;;;;7.22;4.20;;;;;;;;;;5108834;28;20023;-70
2023/11/12 06:45:01;;;;;;;5.20;3.92;;;;;;;;;;5108357;28;20035;-69
2023/11/12 06:47:27;;;;;;;4.93;3.50;;;;;;;;;;5107721;28;20676;-68
2023/11/12 06:49:54;;;;;;;6.03;4.03;;;;;;;;;;5109458;28;20022;-69
2023/11/12 06:52:20;;;;;;;7.50;4.53;;;;;;;;;;5110827;28;20059;-69
2023/11/12 06:54:46;;;;;;;6.13;4.20;;;;;;;;;;5108464;28;20016;-69
2023/11/12 06:57:12;;;;;;;9.68;6.03;;;;;;;;;;5109992;28;20020;-69
2023/11/12 06:59:38;;;;;;;7.82;5.43;;;;;;;;;;5110018;28;20073;-71
2023/11/12 07:02:04;;;;;;;8.90;5.20;;;;;;;;;;5108615;28;20479;-70
2023/11/12 07:04:30;;;;;;;7.60;5.03;;;;;;;;;;5107679;28;20027;-70
2023/11/12 07:06:56;;;;;;;7.97;5.50;;;;;;;;;;5109018;28;20015;-69
2023/11/12 07:09:23;;;;;;;8.27;5.35;;;;;;;;;;5109286;28;20106;-69
2023/11/12 07:11:49;;;;;;;10.75;5.43;;;;;;;;;;5107123;28;20344;-70
2023/11/12 07:14:15;;;;;;;10.45;4.88;;;;;;;;;;5106079;28;20095;-70
2023/11/12 07:16:41;;;;;;;6.47;4.97;;;;;;;;;;5113559;27;20452;-72
2023/11/12 07:19:07;;;;;;;9.77;6.10;;;;;;;;;;5119496;27;20066;-71
2023/11/12 07:21:34;;;;;;;8.80;5.47;;;;;;;;;;5116681;27;20419;-71
2023/11/12 07:24:00;;;;;;;8.70;5.40;;;;;;;;;;5114717;27;20059;-70
2023/11/12 07:26:27;;;;;;;6.95;5.05;;;;;;;;;;5100360;28;20345;-70
2023/11/12 07:28:53;;;;;;;8.35;4.88;;;;;;;;;;5109912;28;20062;-70
2023/11/12 07:31:23;;;;;;;8.38;4.88;;;;;;;;;;5106734;28;20471;-70
2023/11/12 07:33:49;;;;;;;7.20;4.93;;;;;;;;;;5103579;28;20110;-69
2023/11/12 07:36:15;;;;;;;7.90;4.30;;;;;;;;;;5093650;27;20372;-70
2023/11/12 07:38:41;;;;;;;10.82;4.65;;;;;;;;;;5109608;28;20016;-72
2023/11/12 07:41:08;;;;;;;6.68;4.45;;;;;;;;;;5099725;28;20023;-73
2023/11/12 07:43:35;;;;;;;5.18;3.60;;;;;;;;;;5109846;28;20072;-70
2023/11/12 07:46:02;;;;;;;5.55;3.30;;;;;;;;;;5105488;28;20064;-70
2023/11/12 07:48:28;;;;;;;4.80;3.20;;;;;;;;;;5109503;28;20016;-69
2023/11/12 07:50:55;;;;;;;6.47;3.40;;;;;;;;;;5101291;28;20475;-69
2023/11/12 07:53:21;;;;;;;6.75;3.80;;;;;;;;;;5109422;28;20024;-70
2023/11/12 07:55:47;;;;;;;6.65;3.75;;;;;;;;;;5108017;28;20461;-69
2023/11/12 07:58:13;;;;;;;3.45;2.60;;;;;;;;;;5100368;28;20146;-68
2023/11/12 08:00:39;;;;;;;4.38;3.03;;;;;;;;;;5109265;28;20024;-68
2023/11/12 08:03:05;;;;;;;6.90;2.80;;;;;;;;;;5108294;28;20444;-69
2023/11/12 08:05:32;;;;;;;4.72;2.53;;;;;;;;;;5108090;28;20040;-71
2023/11/12 08:07:58;;;;;;;3.70;2.53;;;;;;;;;;5108948;28;20023;-68
2023/11/12 08:10:24;;;;;;;4.25;2.50;;;;;;;;;;5107971;28;20011;-69
2023/11/12 08:12:50;;;;;;;4.20;2.30;;;;;;;;;;5104750;28;20031;-69
2023/11/12 08:15:16;;;;;;;3.03;2.53;;;;;;;;;;5103098;28;20016;-70
2023/11/12 08:17:42;;;;;;;5.53;2.47;;;;;;;;;;5104358;28;20396;-70
2023/11/12 08:20:12;;;;;;;5.68;2.60;;;;;;;;;;5103987;28;20111;-73
2023/11/12 08:22:38;;;;;;;;;;;;;;;;;;5105465;28;20023;-69
2023/11/12 08:25:05;;;;;;;3.58;2.88;;;;;;;;;;5107447;28;19912;-70
2023/11/12 08:27:31;;;;;;;5.55;3.03;;;;;;;;;;5110855;28;20495;-70
2023/11/12 08:29:57;;;;;;;4.63;2.42;;;;;;;;;;5108484;28;20027;-69
2023/11/12 08:32:23;;;;;;;4.22;2.50;;;;;;;;;;5107870;28;20012;-69
2023/11/12 08:34:49;;;;;;;5.00;2.05;;;;;;;;;;5111246;28;20111;-74
2023/11/12 08:37:15;;;;;;;3.03;2.70;;;;;;;;;;5112011;28;20110;-76
2023/11/12 08:39:41;;;;;;;3.88;2.15;;;;;;;;;;5108304;28;20029;-77
2023/11/12 08:42:07;;;;;;;2.67;1.98;;;;;;;;;;5108221;28;20049;-72
2023/11/12 08:44:33;;;;;;;4.15;2.40;;;;;;;;;;5112950;28;20358;-69
2023/11/12 08:46:59;;;;;;;7.13;2.17;;;;;;;;;;5108719;28;20023;-69
2023/11/12 08:49:30;;;;;;;4.05;1.88;;;;;;;;;;5112693;28;20029;-69
2023/11/12 08:51:56;;;;;;;3.63;2.00;;;;;;;;;;5109725;28;20050;-71
2023/11/12 08:54:23;;;;;;;3.13;2.10;;;;;;;;;;5113841;28;20653;-72
2023/11/12 08:56:49;;;;;;;4.95;2.95;;;;;;;;;;5110491;28;20020;-66
2023/11/12 08:59:15;;;;;;;3.08;2.47;;;;;;;;;;5110846;28;20019;-67
2023/11/12 09:01:41;;;;;;;5.30;2.25;;;;;;;;;;5112169;28;20470;-68
2023/11/12 09:04:08;;;;;;;5.00;2.38;;;;;;;;;;5112081;28;20080;-66
2023/11/12 09:06:34;;;;;;;4.20;2.38;;;;;;;;;;5110685;28;20083;-67
2023/11/12 09:09:04;;;;;;;3.45;2.30;;;;;;;;;;5111868;28;20448;-67
2023/11/12 09:11:31;;;;;;;3.85;2.60;;;;;;;;;;5102015;28;20023;-67
2023/11/12 09:14:00;;;;;;;4.00;3.00;;;;;;;;;;5108645;28;20487;-67
2023/11/12 09:16:26;;;;;;;3.22;2.58;;;;;;;;;;5102366;28;20055;-67
2023/11/12 09:18:52;;;;;;;4.10;3.00;;;;;;;;;;5112118;28;20099;-66
2023/11/12 09:21:19;;;;;;;4.97;2.58;;;;;;;;;;5101550;28;20032;-69
2023/11/12 09:23:48;;;;;;;6.30;2.92;;;;;;;;;;5111904;28;20016;-69
2023/11/12 09:26:23;;;;;;;4.68;2.47;;;;;;;;;;5110583;28;20023;-71
2023/11/12 09:28:50;;;;;;;5.65;2.88;;;;;;;;;;5111472;28;20027;-71
2023/11/12 09:31:16;;;;;;;2.95;2.63;;;;;;;;;;5100835;28;20028;-73
2023/11/12 09:33:42;;;;;;;5.75;2.88;;;;;;;;;;5112216;28;20134;-71
2023/11/12 09:36:08;;;;;;;3.97;2.50;;;;;;;;;;5108373;28;20023;-70
2023/11/12 09:38:36;;;;;;;3.58;2.78;;;;;;;;;;5093514;28;20015;-70
2023/11/12 09:41:03;;;;;;;5.85;3.25;;;;;;;;;;5109810;28;20110;-69
2023/11/12 09:43:29;;;;;;;3.13;2.45;;;;;;;;;;5111120;28;20069;-67
2023/11/12 09:45:58;;;;;;;7.68;2.60;;;;;;;;;;5108212;28;20028;-66
2023/11/12 09:48:32;;;;;;;4.00;2.05;;;;;;;;;;5110706;28;20022;-68
2023/11/12 09:51:00;;;;;;;6.38;1.73;;;;;;;;;;5106849;28;20032;-67
2023/11/12 09:53:27;;;;;;;5.38;2.72;;;;;;;;;;5105825;28;20051;-69
2023/11/12 09:55:54;;;;;;;3.22;1.98;;;;;;;;;;5109169;28;20027;-66
2023/11/12 09:58:20;;;;;;;3.83;1.70;;;;;;;;;;5111344;28;20018;-68
2023/11/12 10:00:46;;;;;;;2.60;1.73;;;;;;;;;;5110696;28;20057;-68
2023/11/12 10:03:12;;;;;;;2.80;1.98;;;;;;;;;;5110352;28;20024;-69
2023/11/12 10:05:39;;;;;;;4.13;1.67;;;;;;;;;;5099158;28;20422;-69
2023/11/12 10:08:05;;;;;;;3.65;1.63;;;;;;;;;;5110494;28;20420;-70
2023/11/12 10:10:31;;;;;;;4.28;2.00;;;;;;;;;;5107725;27;20500;-69
2023/11/12 10:12:58;;;;;;;4.45;1.67;;;;;;;;;;5087463;28;20027;-69
2023/11/12 10:15:27;;;;;;;3.15;1.77;;;;;;;;;;5095864;28;20016;-71
2023/11/12 10:17:54;;;;;;;2.58;1.50;;;;;;;;;;5129089;27;20040;-72
2023/11/12 10:20:21;;;;;;;2.92;1.92;;;;;;;;;;5126295;27;20026;-70
2023/11/12 10:22:47;;;;;;;4.43;2.17;;;;;;;;;;5136034;27;20019;-70
2023/11/12 10:25:14;;;;;;;3.58;1.85;;;;;;;;;;5128496;27;20106;-70
2023/11/12 10:27:52;;;;;;;2.47;1.70;;;;;;;;;;5131498;27;20484;-69
2023/11/12 10:30:19;;;;;;;3.13;2.13;;;;;;;;;;5125919;27;20031;-70
2023/11/12 10:32:45;;;;;;;3.75;2.38;;;;;;;;;;5128819;27;20431;-69
2023/11/12 10:35:11;;;;;;;3.70;2.17;;;;;;;;;;5124157;27;20023;-70
2023/11/12 10:37:56;;;;;;;2.42;2.08;;;;;;;;;;5131697;27;20027;-69
2023/11/12 10:40:23;;;;;;;5.28;2.85;;;;;;;;;;5126947;27;20019;-70
2023/11/12 10:42:50;;;;;;;5.60;3.13;;;;;;;;;;5126934;27;20022;-70
2023/11/12 10:45:16;;;;;;;6.43;2.90;;;;;;;;;;5127479;27;20102;-70
2023/11/12 10:47:48;;;;;;;3.33;2.20;;;;;;;;;;5123523;27;20046;-70
2023/11/12 10:50:17;;;;;;;3.38;2.08;;;;;;;;;;5129028;27;20808;-71
2023/11/12 10:52:45;;;;;;;4.82;2.50;;;;;;;;;;5131773;27;20015;-70
2023/11/12 10:55:13;;;;;;;4.40;2.00;;;;;;;;;;5128835;27;20020;-70
2023/11/12 10:57:42;;;;;;;4.07;2.30;;;;;;;;;;5131224;27;20015;-69
2023/11/12 11:00:11;;;;;;;4.40;1.95;;;;;;;;;;5120540;27;20408;-69
2023/11/12 11:02:38;;;;;;;9.18;2.00;;;;;;;;;;5121656;27;20110;-69
2023/11/12 11:05:07;;;;;;;7.20;2.60;;;;;;;;;;5127483;27;20098;-70
2023/11/12 11:07:37;;;;;;;5.20;3.13;;;;;;;;;;5131589;27;20015;-70
2023/11/12 11:10:03;;;;;;;7.78;3.72;;;;;;;;;;5126525;27;20004;-70
2023/11/12 11:12:30;;;;;;;15.35;6.90;;;;;;;;;;5134130;27;20018;-70
2023/11/12 11:14:56;;;;;;;4.85;2.80;;;;;;;;;;5130356;27;20024;-70
2023/11/12 11:17:51;;;;;;;5.35;3.35;;;;;;;;;;5127584;27;20035;-69
2023/11/12 11:20:18;;;;;;;7.63;4.72;;;;;;;;;;5100497;27;20027;-70
2023/11/12 11:22:44;;;;;;;6.97;3.30;;;;;;;;;;5125890;27;20027;-70
2023/11/12 11:25:22;;;;;;;3.83;2.85;;;;;;;;;;5126772;27;20015;-70
2023/11/12 11:27:52;;;;;;;6.10;2.47;;;;;;;;;;5130791;27;20023;-71
2023/11/12 11:30:18;;;;;;;3.25;2.38;;;;;;;;;;5120827;27;20098;-71
2023/11/12 11:32:54;;;;;;;4.82;2.33;;;;;;;;;;5125806;27;20019;-69
2023/11/12 11:35:21;;;;;;;3.28;2.15;;;;;;;;;;5124111;27;20079;-69
2023/11/12 11:38:09;;;;;;;3.35;2.20;;;;;;;;;;5126317;27;20027;-69
2023/11/12 11:40:36;;;;;;;4.40;2.38;;;;;;;;;;5114050;27;20016;-69
2023/11/12 11:43:25;;;;;;;2.70;1.70;;;;;;;;;;5128764;27;20019;-69
2023/11/12 11:46:09;;;;;;;3.55;2.25;;;;;;;;;;5107542;27;20110;-70
2023/11/12 11:48:56;;;;;;;2.75;1.75;;;;;;;;;;5129231;27;20459;-70
2023/11/12 11:51:33;;;;;;;2.03;1.63;;;;;;;;;;5107007;28;20118;-69
2023/11/12 11:54:04;;;;;;;4.20;1.67;;;;;;;;;;5125993;28;20072;-69
2023/11/12 11:56:30;;;;;;;2.88;2.15;;;;;;;;;;5126103;28;20030;-69
2023/11/12 11:58:57;;;;;;;2.22;1.55;;;;;;;;;;5126950;28;20495;-69
2023/11/12 12:01:23;;;;;;;4.10;1.77;;;;;;;;;;5131918;27;20016;-69
2023/11/12 12:03:49;;;;;;;1.83;1.40;;;9.20;99.90;;;;;;5128144;27;20088;-69
2023/11/12 12:06:19;;;;;;;2.28;1.42;;;9.30;99.90;;;;;;5131619;27;20019;-69
2023/11/12 12:08:50;;;;;;;5.85;2.08;;;9.40;99.90;;;;;;5115454;27;20486;-70
2023/11/12 12:11:17;;;;;;;5.85;1.85;;;9.50;99.90;;;;;;5132300;27;20023;-70
2023/11/12 12:14:02;;;;;;;4.05;2.22;;;9.50;99.90;;;;;;5123699;27;20055;-69
2023/11/12 12:16:34;;;;;;;3.10;1.80;;;9.50;99.90;;;;;;5123699;27;20071;-68
2023/11/12 12:19:01;;;;;;;3.05;1.85;;;9.50;99.90;;;;;;5112362;28;20058;-69
2023/11/12 12:21:27;;;;;;;4.68;2.13;;;9.50;99.90;;;;;;5102997;28;20038;-68
2023/11/12 12:23:53;;;;;;;3.08;1.70;;;9.50;99.90;;;;;;5109320;28;20079;-68
2023/11/12 12:26:24;;;;;;;1.88;1.55;;;9.50;99.90;;;;;;5089303;28;20044;-68
2023/11/12 12:28:53;;;;;;;3.38;2.20;;;9.50;99.90;;;;;;5113472;28;20088;-70
2023/11/12 12:31:19;;;;;;;5.35;2.05;;;9.40;99.90;;;;;;5104787;28;20027;-70
2023/11/12 12:34:01;;;;;;;2.28;1.90;;;9.40;99.90;;;;;;5110825;28;20361;-83
2023/11/12 12:36:26;;;;;;;2.55;1.80;;;9.40;99.90;;;;;;5106624;27;20022;-72
2023/11/12 12:39:10;;;;;;;3.47;2.00;;;9.30;99.90;;;;;;5098611;28;20019;-68
2023/11/12 12:41:37;;;;;;;3.75;1.55;;;9.30;99.90;;;;;;5103435;28;20100;-69
2023/11/12 12:44:04;;;;;;;4.22;1.80;;;9.20;99.90;;;;;;5111821;28;20028;-69
2023/11/12 12:46:51;;;;;;;3.72;1.88;;;9.20;99.90;;;;;;5101776;28;20038;-68
2023/11/12 12:49:32;;;;;;;3.00;1.67;;;9.20;99.90;;;;;;5111932;28;20094;-71
2023/11/12 12:52:03;;;;;;;2.70;1.83;;;9.30;99.90;;;;;;5111218;28;20032;-70
2023/11/12 12:54:29;;;;;;;1.88;1.25;;;9.30;99.90;;;;;;5112779;27;20023;-72
2023/11/12 12:57:03;;;;;;;3.65;1.70;;;9.40;99.90;;;;;;5109936;28;20040;-70
2023/11/12 12:59:35;;;;;;;4.30;1.73;;;9.40;99.90;;;;;;5105080;28;20468;-68
2023/11/12 13:02:01;;;;;;;2.47;1.50;;;9.50;99.90;;;;;;5112286;28;20103;-68
2023/11/12 13:04:27;;;;;;;2.97;1.88;;;9.50;99.90;;;;;;5112882;28;20032;-68
2023/11/12 13:06:53;;;;;;;3.28;1.85;;;9.50;99.90;;;;;;5110152;27;20080;-69
2023/11/12 13:09:26;;;;;;;1.92;1.75;;;9.30;99.90;;;;;;5101694;28;20024;-69
2023/11/12 13:11:52;;;;;;;2.83;1.67;;;9.40;99.90;;;;;;5110905;27;20031;-68
2023/11/12 13:14:19;;;;;;;2.50;1.60;;;9.40;99.90;;;;;;5111561;28;20030;-68
2023/11/12 13:16:45;;;;;;;4.60;1.70;;;9.30;99.90;;;;;;5110792;28;20427;-67
2023/11/12 13:19:14;;;;;;;2.72;1.85;;;9.30;99.90;;;;;;5111550;28;20024;-68
2023/11/12 13:21:45;;;;;;;2.85;1.52;;;9.30;99.90;;;;;;5101946;27;20431;-68
2023/11/12 13:24:13;;;;;;;2.88;1.55;;;9.20;99.90;;;;;;5105054;28;20275;-68
2023/11/12 13:26:41;;;;;;;2.88;1.50;;;9.20;99.90;;;;;;5109684;28;20024;-67
2023/11/12 13:29:10;;;;;;;2.08;1.50;;;9.10;99.90;;;;;;5105739;28;20032;-68
2023/11/12 13:31:38;;;;;;;3.67;1.67;;;9.10;99.90;;;;;;5103499;28;20028;-68
2023/11/12 13:34:06;;;;;;;5.75;2.30;;;9.00;99.90;;;;;;5111335;28;20016;-68
2023/11/12 13:36:32;;;;;;;6.75;2.83;;;8.90;99.90;;;;;;5111749;28;20061;-68
2023/11/12 13:38:57;;;;;;;4.07;2.95;;;8.80;99.90;;;;;;5111285;28;20456;-68
2023/11/12 13:41:27;;;;;;;2.75;2.20;;;8.70;99.90;;;;;;5105200;28;20073;-68
2023/11/12 13:43:56;;;;;;;3.78;2.30;;;8.70;99.90;;;;;;5111676;28;20119;-68
2023/11/12 13:46:22;;;;;;;4.38;2.97;;;8.60;99.90;;;;;;5106530;28;20024;-68
2023/11/12 13:48:48;;;;;;;2.38;2.00;;;8.50;99.90;;;;;;5100039;27;20479;-68
2023/11/12 13:51:18;;;;;;;1.85;1.60;;;8.40;99.90;;;;;;5107937;28;20635;-68
2023/11/12 13:53:48;;;;;;;2.60;1.70;;;8.30;99.90;;;;;;5111605;28;20024;-68
2023/11/12 13:56:21;;;;;;;3.80;2.22;;;8.20;99.90;;;;;;5107989;28;20629;-68
2023/11/12 13:58:50;;;;;;;6.15;3.13;;;8.10;99.90;;;;;;5111681;28;20015;-67
2023/11/12 14:01:24;;;;;;;2.67;2.13;;;8.00;99.90;;;;;;5119079;27;20031;-68
2023/11/12 14:03:50;;;;;;;5.88;2.53;;;8.00;99.90;;;;;;5111102;28;20034;-68
2023/11/12 14:06:16;;;;;;;4.70;3.05;;;8.00;99.90;;;;;;5108825;28;20028;-68
2023/11/12 14:08:43;;;;;;;12.15;6.93;;;7.90;99.90;;;;;;5111639;28;20106;-68
2023/11/12 14:11:11;;;;;;;9.23;4.60;;;7.80;99.90;;;;;;5089809;28;20361;-67
2023/11/12 14:13:39;;;;;;;3.97;3.17;;;7.80;99.90;;;;;;5111605;28;20102;-66
2023/11/12 14:16:10;;;;;;;12.35;7.70;;;7.70;99.90;;;;;;5099309;28;20056;-68
2023/11/12 14:18:36;;;;;;;9.63;5.07;;;7.70;99.90;;;;;;5110018;28;20160;-69
2023/11/12 14:21:02;;;;;;;20.38;10.18;;;7.60;99.90;;;;;;5095921;28;20019;-69
2023/11/12 14:23:27;;;;;;;9.70;5.75;;;7.50;99.90;;;;;;5110749;28;20345;-69
2023/11/12 14:25:55;;;;;;;6.70;4.20;;;7.40;99.90;;;;;;5101944;28;20076;-69